createdAt,value
2022-09-07T00:00:39.831Z,1128.61
2022-09-07T00:01:39.834Z,1128.61
2022-09-07T00:02:39.916Z,1128.62
2022-09-07T00:03:39.852Z,1128.62
2022-09-07T00:04:39.905Z,1128.64
2022-09-07T00:05:39.842Z,1128.71
2022-09-07T00:06:39.845Z,1128.7
2022-09-07T00:07:39.845Z,1128.75
2022-09-07T00:08:39.876Z,1128.74
2022-09-07T00:09:39.854Z,1128.77
2022-09-07T00:10:39.852Z,1128.76
2022-09-07T00:11:39.852Z,1128.8
2022-09-07T00:12:39.857Z,1128.84
2022-09-07T00:13:39.872Z,1128.86
2022-09-07T00:14:39.858Z,1128.89
2022-09-07T00:15:39.859Z,1128.89
2022-09-07T00:16:39.915Z,1128.89
2022-09-07T00:17:39.866Z,1128.86
2022-09-07T00:18:43.751Z,1128.83
2022-09-07T00:19:39.869Z,1128.9
2022-09-07T00:20:39.867Z,1128.89
2022-09-07T00:21:39.889Z,1128.96
2022-09-07T00:22:39.882Z,1128.89
2022-09-07T00:23:39.887Z,1128.98
2022-09-07T00:24:39.874Z,1128.97
2022-09-07T00:25:39.878Z,1129.03
2022-09-07T00:26:39.878Z,1129.01
2022-09-07T00:27:39.881Z,1129.06
2022-09-07T00:28:39.898Z,1129.08
2022-09-07T00:29:39.886Z,1129.12
2022-09-07T00:30:39.884Z,1129.11
2022-09-07T00:31:39.953Z,1129.11
2022-09-07T00:32:39.893Z,1129.1
2022-09-07T00:33:39.911Z,1129.09
2022-09-07T00:34:42.899Z,1129.1
2022-09-07T00:35:39.899Z,1129.15
2022-09-07T00:36:39.896Z,1129.21
2022-09-07T00:37:39.899Z,1129.21
2022-09-07T00:38:39.918Z,1129.26
2022-09-07T00:39:39.984Z,1129.33
2022-09-07T00:40:39.902Z,1129.37
2022-09-07T00:41:39.906Z,1129.42
2022-09-07T00:42:39.908Z,1129.43
2022-09-07T00:43:39.930Z,1129.47
2022-09-07T00:44:39.911Z,1129.51
2022-09-07T00:45:39.913Z,1129.43
2022-09-07T00:46:40.148Z,1129.45
2022-09-07T00:47:39.914Z,1129.44
2022-09-07T00:48:39.939Z,1129.38
2022-09-07T00:49:39.920Z,1129.4
2022-09-07T00:50:39.918Z,1129.35
2022-09-07T00:51:39.925Z,1129.37
2022-09-07T00:52:39.926Z,1129.33
2022-09-07T00:53:39.948Z,1129.34
2022-09-07T00:54:39.928Z,1129.32
2022-09-07T00:55:39.930Z,1129.35
2022-09-07T00:56:39.933Z,1129.33
2022-09-07T00:57:39.936Z,1129.34
2022-09-07T00:58:39.953Z,1129.32
2022-09-07T00:59:39.938Z,1129.29
2022-09-07T01:00:39.941Z,1129.33
2022-09-07T01:01:40.013Z,1129.35
2022-09-07T01:02:40.086Z,1129.37
2022-09-07T01:03:39.960Z,1129.38
2022-09-07T01:04:39.944Z,1129.41
2022-09-07T01:05:39.947Z,1129.38
2022-09-07T01:06:39.950Z,1129.38
2022-09-07T01:07:39.950Z,1129.39
2022-09-07T01:08:39.983Z,1129.44
2022-09-07T01:09:39.955Z,1129.48
2022-09-07T01:10:39.956Z,1129.49
2022-09-07T01:11:39.962Z,1129.51
2022-09-07T01:12:39.960Z,1129.58
2022-09-07T01:13:39.986Z,1129.67
2022-09-07T01:14:39.968Z,1129.68
2022-09-07T01:15:40.006Z,1129.6
2022-09-07T01:16:39.968Z,1129.56
2022-09-07T01:17:42.989Z,1129.53
2022-09-07T01:18:39.988Z,1129.6
2022-09-07T01:19:39.971Z,1129.6
2022-09-07T01:20:39.972Z,1129.59
2022-09-07T01:21:39.980Z,1129.59
2022-09-07T01:22:39.978Z,1129.64
2022-09-07T01:23:40.021Z,1129.63
2022-09-07T01:24:39.980Z,1129.63
2022-09-07T01:25:39.984Z,1129.59
2022-09-07T01:26:39.986Z,1129.58
2022-09-07T01:27:39.991Z,1129.59
2022-09-07T01:28:41.590Z,1129.58
2022-09-07T01:29:39.992Z,1129.58
2022-09-07T01:30:39.990Z,1129.6
2022-09-07T01:31:39.994Z,1129.48
2022-09-07T01:32:40.005Z,1129.53
2022-09-07T01:33:40.018Z,1129.47
2022-09-07T01:34:40.001Z,1129.49
2022-09-07T01:35:40.002Z,1129.46
2022-09-07T01:36:40.003Z,1129.52
2022-09-07T01:37:40.006Z,1129.43
2022-09-07T01:38:40.023Z,1129.48
2022-09-07T01:39:43.231Z,1129.47
2022-09-07T01:40:40.008Z,1129.4
2022-09-07T01:41:40.010Z,1129.39
2022-09-07T01:42:40.015Z,1129.46
2022-09-07T01:43:40.044Z,1129.41
2022-09-07T01:44:40.017Z,1129.47
2022-09-07T01:45:40.019Z,1129.47
2022-09-07T01:46:40.120Z,1129.49
2022-09-07T01:47:40.027Z,1129.47
2022-09-07T01:48:40.042Z,1129.46
2022-09-07T01:49:40.025Z,1129.51
2022-09-07T01:50:43.015Z,1129.47
2022-09-07T01:51:40.027Z,1129.46
2022-09-07T01:52:40.031Z,1129.46
2022-09-07T01:53:40.050Z,1129.35
2022-09-07T01:54:40.037Z,1129.34
2022-09-07T01:55:40.036Z,1129.38
2022-09-07T01:56:40.036Z,1129.29
2022-09-07T01:57:40.039Z,1129.28
2022-09-07T01:58:40.071Z,1129.31
2022-09-07T01:59:40.043Z,1129.25
2022-09-07T02:00:40.047Z,1129.16
2022-09-07T02:01:40.110Z,1129.1
2022-09-07T02:02:40.109Z,1129.01
2022-09-07T02:03:40.067Z,1128.98
2022-09-07T02:04:40.053Z,1129
2022-09-07T02:05:40.055Z,1128.91
2022-09-07T02:06:40.061Z,1128.93
2022-09-07T02:07:40.058Z,1128.96
2022-09-07T02:08:40.096Z,1128.95
2022-09-07T02:09:40.059Z,1128.95
2022-09-07T02:10:40.065Z,1129.01
2022-09-07T02:11:40.067Z,1128.95
2022-09-07T02:12:40.065Z,1128.94
2022-09-07T02:13:40.082Z,1128.91
2022-09-07T02:14:40.083Z,1128.9
2022-09-07T02:15:40.146Z,1128.89
2022-09-07T02:16:40.072Z,1128.91
2022-09-07T02:17:40.073Z,1128.83
2022-09-07T02:18:40.094Z,1128.86
2022-09-07T02:19:40.078Z,1128.77
2022-09-07T02:20:40.093Z,1128.76
2022-09-07T02:21:40.085Z,1128.76
2022-09-07T02:22:40.087Z,1128.83
2022-09-07T02:23:40.105Z,1128.85
2022-09-07T02:24:40.093Z,1128.8
2022-09-07T02:25:40.087Z,1128.81
2022-09-07T02:26:40.091Z,1128.77
2022-09-07T02:27:40.093Z,1128.81
2022-09-07T02:28:40.111Z,1128.78
2022-09-07T02:29:40.097Z,1128.8
2022-09-07T02:30:40.167Z,1128.71
2022-09-07T02:31:40.103Z,1128.69
2022-09-07T02:32:40.100Z,1128.67
2022-09-07T02:33:40.125Z,1128.6
2022-09-07T02:34:40.110Z,1128.59
2022-09-07T02:35:40.113Z,1128.65
2022-09-07T02:36:40.110Z,1128.64
2022-09-07T02:37:40.111Z,1128.66
2022-09-07T02:38:40.132Z,1128.71
2022-09-07T02:39:40.177Z,1128.7
2022-09-07T02:40:40.113Z,1128.69
2022-09-07T02:41:40.117Z,1128.64
2022-09-07T02:42:40.120Z,1128.7
2022-09-07T02:43:40.136Z,1128.64
2022-09-07T02:44:40.125Z,1128.62
2022-09-07T02:45:40.125Z,1128.54
2022-09-07T02:46:40.197Z,1128.59
2022-09-07T02:47:40.130Z,1128.54
2022-09-07T02:48:40.146Z,1128.55
2022-09-07T02:49:40.137Z,1128.51
2022-09-07T02:50:40.133Z,1128.58
2022-09-07T02:51:40.135Z,1128.63
2022-09-07T02:52:40.134Z,1128.68
2022-09-07T02:53:40.153Z,1128.64
2022-09-07T02:54:40.140Z,1128.58
2022-09-07T02:55:40.145Z,1128.52
2022-09-07T02:56:40.142Z,1128.47
2022-09-07T02:57:40.148Z,1128.33
2022-09-07T02:58:40.166Z,1128.27
2022-09-07T02:59:40.150Z,1128.22
2022-09-07T03:00:40.153Z,1128.11
2022-09-07T03:01:43.313Z,1128.1
2022-09-07T03:02:40.210Z,1128.04
2022-09-07T03:03:40.172Z,1128.04
2022-09-07T03:04:40.158Z,1128.13
2022-09-07T03:05:40.163Z,1128.09
2022-09-07T03:06:40.161Z,1128.14
2022-09-07T03:07:44.055Z,1128.13
2022-09-07T03:08:40.193Z,1128.07
2022-09-07T03:09:40.165Z,1128.1
2022-09-07T03:10:40.168Z,1128.05
2022-09-07T03:11:40.175Z,1127.95
2022-09-07T03:12:40.172Z,1128.03
2022-09-07T03:13:40.193Z,1128.09
2022-09-07T03:14:40.177Z,1128.12
2022-09-07T03:15:40.259Z,1128.24
2022-09-07T03:16:40.180Z,1128.21
2022-09-07T03:17:40.185Z,1128.19
2022-09-07T03:18:40.202Z,1128.18
2022-09-07T03:19:40.183Z,1128.05
2022-09-07T03:20:40.184Z,1128
2022-09-07T03:21:40.189Z,1127.94
2022-09-07T03:22:40.193Z,1127.81
2022-09-07T03:23:40.218Z,1127.76
2022-09-07T03:24:40.204Z,1127.77
2022-09-07T03:25:40.193Z,1127.79
2022-09-07T03:26:40.203Z,1127.79
2022-09-07T03:27:40.204Z,1127.83
2022-09-07T03:28:40.219Z,1127.79
2022-09-07T03:29:41.938Z,1127.77
2022-09-07T03:30:40.242Z,1127.74
2022-09-07T03:31:40.203Z,1127.81
2022-09-07T03:32:40.209Z,1127.81
2022-09-07T03:33:40.224Z,1127.87
2022-09-07T03:34:40.211Z,1127.88
2022-09-07T03:35:40.217Z,1127.86
2022-09-07T03:36:40.215Z,1127.93
2022-09-07T03:37:40.222Z,1127.96
2022-09-07T03:38:40.236Z,1127.96
2022-09-07T03:39:40.261Z,1127.95
2022-09-07T03:40:40.221Z,1127.98
2022-09-07T03:41:40.227Z,1127.89
2022-09-07T03:42:40.228Z,1127.89
2022-09-07T03:43:40.241Z,1127.72
2022-09-07T03:44:43.311Z,1127.73
2022-09-07T03:45:40.262Z,1127.77
2022-09-07T03:46:40.236Z,1127.81
2022-09-07T03:47:40.236Z,1127.74
2022-09-07T03:48:40.263Z,1127.74
2022-09-07T03:49:40.238Z,1127.74
2022-09-07T03:50:40.240Z,1127.78
2022-09-07T03:51:40.238Z,1127.8
2022-09-07T03:52:40.241Z,1127.81
2022-09-07T03:53:40.259Z,1127.76
2022-09-07T03:54:40.254Z,1127.83
2022-09-07T03:55:43.003Z,1127.78
2022-09-07T03:56:40.246Z,1127.63
2022-09-07T03:57:40.262Z,1127.66
2022-09-07T03:58:40.279Z,1127.61
2022-09-07T03:59:40.256Z,1127.39
2022-09-07T04:00:40.258Z,1127.33
2022-09-07T04:01:40.307Z,1127.26
2022-09-07T04:02:40.314Z,1127.23
2022-09-07T04:03:40.337Z,1127.24
2022-09-07T04:04:40.263Z,1127.24
2022-09-07T04:05:40.263Z,1127.31
2022-09-07T04:06:43.043Z,1127.2
2022-09-07T04:07:40.269Z,1127.18
2022-09-07T04:08:40.302Z,1127.12
2022-09-07T04:09:40.270Z,1127.27
2022-09-07T04:10:40.274Z,1127.3
2022-09-07T04:11:40.276Z,1127.34
2022-09-07T04:12:40.278Z,1127.29
2022-09-07T04:13:40.307Z,1127.37
2022-09-07T04:14:40.280Z,1127.46
2022-09-07T04:15:40.285Z,1127.47
2022-09-07T04:16:40.344Z,1127.46
2022-09-07T04:17:43.132Z,1127.47
2022-09-07T04:18:40.308Z,1127.58
2022-09-07T04:19:40.288Z,1127.65
2022-09-07T04:20:40.294Z,1127.67
2022-09-07T04:21:40.304Z,1127.77
2022-09-07T04:22:40.294Z,1127.78
2022-09-07T04:23:40.318Z,1127.81
2022-09-07T04:24:40.297Z,1127.76
2022-09-07T04:25:40.298Z,1127.73
2022-09-07T04:26:40.305Z,1127.62
2022-09-07T04:27:40.302Z,1127.58
2022-09-07T04:28:40.347Z,1127.6
2022-09-07T04:29:40.306Z,1127.66
2022-09-07T04:30:40.336Z,1127.69
2022-09-07T04:31:40.311Z,1127.79
2022-09-07T04:32:40.312Z,1127.88
2022-09-07T04:33:40.357Z,1127.91
2022-09-07T04:34:40.315Z,1128
2022-09-07T04:35:40.335Z,1128.1
2022-09-07T04:36:40.318Z,1128.11
2022-09-07T04:37:40.321Z,1128.17
2022-09-07T04:38:40.345Z,1128.22
2022-09-07T04:39:40.356Z,1128.16
2022-09-07T04:40:40.327Z,1128.25
2022-09-07T04:41:40.326Z,1128.24
2022-09-07T04:42:40.333Z,1128.21
2022-09-07T04:43:40.360Z,1128.27
2022-09-07T04:44:40.335Z,1128.36
2022-09-07T04:45:40.490Z,1128.41
2022-09-07T04:46:40.337Z,1128.41
2022-09-07T04:47:40.336Z,1128.52
2022-09-07T04:48:40.359Z,1128.61
2022-09-07T04:49:40.349Z,1128.73
2022-09-07T04:50:40.343Z,1128.8
2022-09-07T04:51:40.346Z,1128.89
2022-09-07T04:52:40.347Z,1128.93
2022-09-07T04:53:40.371Z,1129.11
2022-09-07T04:54:40.350Z,1129.07
2022-09-07T04:55:40.352Z,1129.04
2022-09-07T04:56:40.356Z,1129.1
2022-09-07T04:57:40.359Z,1129.1
2022-09-07T04:58:40.381Z,1129.1
2022-09-07T04:59:40.362Z,1129.14
2022-09-07T05:00:40.365Z,1129.15
2022-09-07T05:01:40.413Z,1129.13
2022-09-07T05:02:40.451Z,1129.14
2022-09-07T05:03:40.381Z,1129.12
2022-09-07T05:04:40.369Z,1129.16
2022-09-07T05:05:40.370Z,1129.12
2022-09-07T05:06:40.380Z,1129.24
2022-09-07T05:07:40.374Z,1129.31
2022-09-07T05:08:40.406Z,1129.34
2022-09-07T05:09:40.375Z,1129.37
2022-09-07T05:10:40.401Z,1129.41
2022-09-07T05:11:40.380Z,1129.39
2022-09-07T05:12:40.384Z,1129.46
2022-09-07T05:13:40.414Z,1129.49
2022-09-07T05:14:40.393Z,1129.46
2022-09-07T05:15:40.391Z,1129.41
2022-09-07T05:16:40.572Z,1129.36
2022-09-07T05:17:40.395Z,1129.39
2022-09-07T05:18:40.411Z,1129.41
2022-09-07T05:19:40.400Z,1129.44
2022-09-07T05:20:40.415Z,1129.51
2022-09-07T05:21:40.398Z,1129.52
2022-09-07T05:22:40.402Z,1129.48
2022-09-07T05:23:40.423Z,1129.55
2022-09-07T05:24:40.404Z,1129.61
2022-09-07T05:25:40.405Z,1129.65
2022-09-07T05:26:40.404Z,1129.57
2022-09-07T05:27:40.411Z,1129.67
2022-09-07T05:28:40.784Z,1129.68
2022-09-07T05:31:22.387Z,1129.71
2022-09-07T05:32:25.231Z,1129.72
2022-09-07T05:34:36.433Z,1129.71
2022-09-07T05:35:36.415Z,1129.69
2022-09-07T05:36:36.417Z,1129.7
2022-09-07T05:37:36.418Z,1129.69
2022-09-07T05:38:36.422Z,1129.68
2022-09-07T05:39:36.727Z,1129.64
2022-09-07T05:40:40.462Z,1129.56
2022-09-07T05:41:36.429Z,1129.55
2022-09-07T05:42:36.442Z,1129.53
2022-09-07T05:43:36.567Z,1129.52
2022-09-07T05:44:48.568Z,1129.51
2022-09-07T05:45:48.613Z,1129.53
2022-09-07T05:46:48.561Z,1129.51
2022-09-07T05:47:48.557Z,1129.5
2022-09-07T05:48:48.559Z,1129.55
2022-09-07T05:49:48.577Z,1129.58
2022-09-07T05:50:48.564Z,1129.54
2022-09-07T05:51:48.561Z,1129.51
2022-09-07T05:52:48.568Z,1129.48
2022-09-07T05:53:48.571Z,1129.53
2022-09-07T05:54:48.587Z,1129.53
2022-09-07T05:55:48.585Z,1129.61
2022-09-07T05:56:48.576Z,1129.6
2022-09-07T05:57:48.575Z,1129.59
2022-09-07T05:58:48.577Z,1129.62
2022-09-07T05:59:48.598Z,1129.56
2022-09-07T06:00:48.583Z,1129.59
2022-09-07T06:01:48.721Z,1129.61
2022-09-07T06:02:48.657Z,1129.56
2022-09-07T06:03:48.588Z,1129.58
2022-09-07T06:04:48.606Z,1129.56
2022-09-07T06:05:48.588Z,1129.57
2022-09-07T06:07:11.010Z,1129.53
2022-09-07T06:07:48.592Z,1129.53
2022-09-07T06:08:48.599Z,1129.53
2022-09-07T06:10:59.661Z,1129.58
2022-09-07T06:11:59.641Z,1129.52
2022-09-07T06:12:59.645Z,1129.52
2022-09-07T06:13:59.644Z,1129.49
2022-09-07T06:14:59.664Z,1129.47
2022-09-07T06:15:59.647Z,1129.43
2022-09-07T06:16:59.716Z,1129.39
2022-09-07T06:17:59.651Z,1129.33
2022-09-07T06:18:59.656Z,1129.28
2022-09-07T06:19:59.672Z,1129.25
2022-09-07T06:20:59.658Z,1129.18
2022-09-07T06:21:59.661Z,1129.12
2022-09-07T06:22:59.661Z,1129.01
2022-09-07T06:23:59.661Z,1128.94
2022-09-07T06:24:59.682Z,1128.78
2022-09-07T06:25:59.665Z,1128.67
2022-09-07T06:26:59.672Z,1128.57
2022-09-07T06:27:59.674Z,1128.54
2022-09-07T06:28:59.681Z,1128.44
2022-09-07T06:29:59.691Z,1128.39
2022-09-07T06:30:59.707Z,1128.28
2022-09-07T06:32:59.678Z,1128.04
2022-09-07T06:33:59.681Z,1127.8
2022-09-07T06:34:59.697Z,1127.59
2022-09-07T06:35:59.684Z,1127.44
2022-09-07T06:36:59.692Z,1127.18
2022-09-07T06:37:59.689Z,1126.96
2022-09-07T06:38:59.693Z,1126.73
2022-09-07T06:39:59.805Z,1126.57
2022-09-07T06:42:05.901Z,1126.12
2022-09-07T06:43:05.691Z,1125.9
2022-09-07T06:44:05.693Z,1125.66
2022-09-07T06:45:05.708Z,1125.51
2022-09-07T06:47:14.912Z,1125.14
2022-09-07T06:48:14.913Z,1124.9
2022-09-07T06:49:14.917Z,1124.69
2022-09-07T06:50:14.934Z,1124.36
2022-09-07T06:51:14.919Z,1124.18
2022-09-07T06:52:14.928Z,1123.95
2022-09-07T06:55:56.239Z,1122.88
2022-09-07T06:56:56.219Z,1122.63
2022-09-07T06:57:56.201Z,1122.39
2022-09-07T06:58:56.203Z,1122.02
2022-09-07T06:59:56.206Z,1121.66
2022-09-07T07:00:56.245Z,1121.14
2022-09-07T07:01:56.211Z,1120.87
2022-09-07T07:02:56.287Z,1120.7
2022-09-07T07:03:56.214Z,1120.58
2022-09-07T07:04:56.216Z,1120.28
2022-09-07T07:05:56.234Z,1119.95
2022-09-07T07:06:56.223Z,1119.67
2022-09-07T07:07:56.218Z,1119.26
2022-09-07T07:08:56.220Z,1118.89
2022-09-07T07:09:56.221Z,1117.23
2022-09-07T07:10:56.259Z,1116.7
2022-09-07T07:11:56.228Z,1116.11
2022-09-07T07:12:56.232Z,1115.23
2022-09-07T07:13:56.229Z,1114.93
2022-09-07T07:14:56.235Z,1114.55
2022-09-07T07:15:56.273Z,1114.02
2022-09-07T07:16:56.243Z,1113.57
2022-09-07T07:18:02.491Z,1113.04
2022-09-07T07:18:56.245Z,1112.79
2022-09-07T07:19:56.244Z,1112.45
2022-09-07T07:20:56.266Z,1111.98
2022-09-07T07:22:56.249Z,1111.28
2022-09-07T07:23:56.252Z,1110.71
2022-09-07T07:24:56.251Z,1110.18
2022-09-07T07:25:56.268Z,1109.65
2022-09-07T07:26:56.252Z,1107.38
2022-09-07T07:27:56.850Z,1107.16
2022-09-07T07:29:06.442Z,1106.64
2022-09-07T07:30:06.442Z,1103.38
2022-09-07T07:31:09.864Z,1098.4
2022-09-07T07:32:06.434Z,1095.38
2022-09-07T07:33:07.199Z,1095.69
2022-09-07T07:34:06.496Z,1094.68
2022-09-07T07:35:06.434Z,1089.41
2022-09-07T07:36:06.456Z,1084.05
2022-09-07T07:37:06.462Z,1078.45
2022-09-07T07:40:26.494Z,1073.4
2022-09-07T07:42:22.304Z,1065.39
2022-09-07T07:43:25.474Z,1059.92
2022-09-07T07:44:22.305Z,1055.27
2022-09-07T07:46:25.225Z,1046.42
2022-09-07T07:47:22.313Z,1042
2022-09-07T07:49:22.341Z,1033.2
2022-09-07T07:50:37.777Z,1028.16
2022-09-07T07:51:22.341Z,1023.15
2022-09-07T07:52:50.601Z,1016.42
2022-09-07T07:53:50.122Z,1011.34
2022-09-07T07:54:50.128Z,1006.96
2022-09-07T07:55:50.130Z,1001.72
2022-09-07T07:56:50.153Z,998.26
2022-09-07T07:57:50.132Z,995.06
2022-09-07T07:58:50.136Z,990.97
2022-09-07T07:59:50.134Z,986.33
2022-09-07T08:00:54.520Z,981.57
2022-09-07T08:01:50.303Z,976.36
2022-09-07T08:02:50.222Z,971.98
2022-09-07T08:03:50.142Z,966.32
2022-09-07T08:04:50.170Z,960.05
2022-09-07T08:05:50.144Z,953.74
2022-09-07T08:06:51.898Z,947.93
2022-09-07T08:07:50.155Z,943.28
2022-09-07T08:08:50.152Z,938.03
2022-09-07T08:09:50.151Z,932.87
2022-09-07T08:10:50.154Z,928.48
2022-09-07T08:11:50.159Z,922.86
2022-09-07T08:12:50.161Z,918.55
2022-09-07T08:13:50.161Z,912.37
2022-09-07T08:14:50.165Z,907.25
2022-09-07T08:15:50.213Z,901.72
2022-09-07T08:16:50.169Z,897.28
2022-09-07T08:17:53.218Z,892.05
2022-09-07T08:18:50.181Z,888.53
2022-09-07T08:19:50.174Z,884.86
2022-09-07T08:20:50.230Z,880.88
2022-09-07T08:21:50.180Z,878.06
2022-09-07T08:22:50.179Z,876.13
2022-09-07T08:23:50.181Z,875.99
2022-09-07T08:24:50.183Z,875.78
2022-09-07T08:25:50.184Z,873.2
2022-09-07T08:26:50.187Z,870.39
2022-09-07T08:27:50.185Z,869.02
2022-09-07T08:28:52.942Z,867.86
2022-09-07T08:29:50.198Z,865.75
2022-09-07T08:30:50.193Z,862.83
2022-09-07T08:31:50.324Z,858.69
2022-09-07T08:32:50.196Z,854.03
2022-09-07T08:33:50.202Z,848.42
2022-09-07T08:34:50.200Z,843.52
2022-09-07T08:35:50.208Z,841.56
2022-09-07T08:36:50.231Z,839.33
2022-09-07T08:37:50.208Z,836.9
2022-09-07T08:38:50.209Z,835.36
2022-09-07T08:39:53.114Z,834.29
2022-09-07T08:40:50.215Z,835.24
2022-09-07T08:41:50.217Z,836.65
2022-09-07T08:42:50.220Z,836.62
2022-09-07T08:43:50.218Z,834.09
2022-09-07T08:44:50.220Z,830.54
2022-09-07T08:45:50.230Z,826.61
2022-09-07T08:46:50.406Z,821.62
2022-09-07T08:47:50.227Z,816.73
2022-09-07T08:48:50.227Z,810.81
2022-09-07T08:49:50.234Z,804.37
2022-09-07T08:50:50.233Z,799.51
2022-09-07T08:51:50.243Z,796.85
2022-09-07T08:52:50.273Z,794.67
2022-09-07T08:53:50.236Z,788.14
2022-09-07T08:54:50.242Z,781.69
2022-09-07T08:55:50.242Z,775.14
2022-09-07T08:57:50.244Z,765.9
2022-09-07T08:58:50.563Z,760.5
2022-09-07T08:59:50.251Z,756.42
2022-09-07T09:00:50.297Z,752.76
2022-09-07T09:03:32.121Z,747.68
2022-09-07T09:04:32.156Z,745.45
2022-09-07T09:05:31.369Z,741.43
2022-09-07T09:06:31.431Z,736.3
2022-09-07T09:07:31.311Z,733.36
2022-09-07T09:08:31.338Z,732.37
2022-09-07T09:09:31.297Z,729.6
2022-09-07T09:10:34.071Z,727.8
2022-09-07T09:11:31.304Z,725.86
2022-09-07T09:12:34.375Z,725.38
2022-09-07T09:13:31.384Z,726.97
2022-09-07T09:14:31.363Z,728
2022-09-07T09:15:31.311Z,729.63
2022-09-07T09:16:31.471Z,732.81
2022-09-07T09:17:31.331Z,734.72
2022-09-07T09:18:31.391Z,736.96
2022-09-07T09:19:31.319Z,740.34
2022-09-07T09:20:31.316Z,740.34
2022-09-07T09:21:34.190Z,741.1
2022-09-07T09:22:31.340Z,740.66
2022-09-07T09:23:31.322Z,737.93
2022-09-07T09:24:31.352Z,736.34
2022-09-07T09:25:31.332Z,733.2
2022-09-07T09:26:31.328Z,729.34
2022-09-07T09:27:31.352Z,724.59
2022-09-07T09:28:32.296Z,721.16
2022-09-07T09:29:31.344Z,719.5
2022-09-07T09:30:31.340Z,716.88
2022-09-07T09:31:31.373Z,714.38
2022-09-07T09:32:32.977Z,713.88
2022-09-07T09:33:31.346Z,713.55
2022-09-07T09:34:34.629Z,712.05
2022-09-07T09:35:31.349Z,711.2
2022-09-07T09:36:31.350Z,707.19
2022-09-07T09:37:31.385Z,702.14
2022-09-07T09:38:31.495Z,696.41
2022-09-07T09:39:31.425Z,693.55
2022-09-07T09:40:31.432Z,693.23
2022-09-07T09:41:31.357Z,695.34
2022-09-07T09:42:31.362Z,697.43
2022-09-07T09:43:34.154Z,697.75
2022-09-07T09:44:31.365Z,696.73
2022-09-07T09:46:11.996Z,695.07
2022-09-07T09:46:31.407Z,696.07
2022-09-07T09:47:31.806Z,695.22
2022-09-07T09:48:31.410Z,692.38
2022-09-07T09:49:31.375Z,692.88
2022-09-07T09:52:51.913Z,705.86
2022-09-07T09:53:49.784Z,710.74
2022-09-07T09:54:49.780Z,705.53
2022-09-07T09:55:49.807Z,700.79
2022-09-07T09:56:49.785Z,701.33
2022-09-07T10:00:11.770Z,717.8
2022-09-07T10:01:24.964Z,726.18
2022-09-07T10:04:52.535Z,753.91
2022-09-07T10:05:52.537Z,760.04
2022-09-07T10:06:52.539Z,764.41
2022-09-07T10:07:52.540Z,767.97
2022-09-07T10:08:52.570Z,775.77
2022-09-07T10:09:52.542Z,783.25
2022-09-07T10:10:52.573Z,789.29
2022-09-07T10:12:08.622Z,794.62
2022-09-07T10:12:52.554Z,797.74
2022-09-07T10:13:52.579Z,796.09
2022-09-07T10:14:52.553Z,800.06
2022-09-07T10:15:52.584Z,802.59
2022-09-07T10:16:52.561Z,805.02
2022-09-07T10:17:52.558Z,800.46
2022-09-07T10:18:52.584Z,797.22
2022-09-07T10:19:52.783Z,793.35
2022-09-07T10:20:52.567Z,785.89
2022-09-07T10:21:52.568Z,780.84
2022-09-07T10:22:52.571Z,775.32
2022-09-07T10:23:52.588Z,766.32
2022-09-07T10:24:52.573Z,757.48
2022-09-07T10:25:52.574Z,751.19
2022-09-07T10:26:52.612Z,750.09
2022-09-07T10:27:52.579Z,747.22
2022-09-07T10:29:08.385Z,739.28
2022-09-07T10:29:52.586Z,735.66
2022-09-07T10:30:52.602Z,729.68
2022-09-07T10:31:52.588Z,722.63
2022-09-07T10:32:52.592Z,715.19
2022-09-07T10:34:52.602Z,702.36
2022-09-07T10:35:52.593Z,695.62
2022-09-07T10:36:52.596Z,692.54
2022-09-07T10:37:52.598Z,696.63
2022-09-07T10:38:52.617Z,703.21
2022-09-07T10:39:54.821Z,710.2
2022-09-07T10:40:52.607Z,713.7
2022-09-07T10:41:52.606Z,719.78
2022-09-07T10:43:52.636Z,728.49
2022-09-07T10:44:52.613Z,731.39
2022-09-07T10:45:52.643Z,735.12
2022-09-07T10:46:59.868Z,738.3
2022-09-07T10:47:52.628Z,742.61
2022-09-07T10:48:52.634Z,741.37
2022-09-07T10:50:52.639Z,737.14
2022-09-07T10:51:52.623Z,733.25
2022-09-07T10:52:52.626Z,730.17
2022-09-07T10:54:52.634Z,719.14
2022-09-07T10:55:52.634Z,713.38
2022-09-07T10:56:52.636Z,709.73
2022-09-07T10:57:52.635Z,708.7
2022-09-07T10:59:08.108Z,707.19
2022-09-07T11:00:08.710Z,713.2
2022-09-07T11:00:52.641Z,714.67
2022-09-07T11:01:52.688Z,710.69
2022-09-07T11:03:52.703Z,715.63
2022-09-07T11:04:52.650Z,714.1
2022-09-07T11:05:52.654Z,720.91
2022-09-07T11:06:55.721Z,718.5
2022-09-07T11:07:52.659Z,717.26
2022-09-07T11:09:52.659Z,728.35
2022-09-07T11:10:52.667Z,733.48
2022-09-07T11:12:08.157Z,739.48
2022-09-07T11:12:52.666Z,739.95
2022-09-07T11:14:11.790Z,734.76
2022-09-07T11:14:52.745Z,731.52
2022-09-07T11:15:52.726Z,726.66
2022-09-07T11:16:52.799Z,722.15
2022-09-07T11:17:55.680Z,717.59
2022-09-07T11:18:52.948Z,713.61
2022-09-07T11:19:52.679Z,708.79
2022-09-07T11:20:52.680Z,705.97
2022-09-07T11:21:59.757Z,699.96
2022-09-07T11:22:52.687Z,693.7
2022-09-07T11:23:52.703Z,693.87
2022-09-07T11:25:52.691Z,704.8
2022-09-07T11:26:52.695Z,712.31
2022-09-07T11:27:52.695Z,718.4
2022-09-07T11:29:52.697Z,729.57
2022-09-07T11:30:55.556Z,735.82
2022-09-07T11:31:52.707Z,741.62
2022-09-07T11:32:52.705Z,741.19
2022-09-07T11:34:52.712Z,735.77
2022-09-07T11:35:52.711Z,734.64
2022-09-07T11:36:52.709Z,729.49
2022-09-07T11:37:52.720Z,720.76
2022-09-07T11:38:52.715Z,713.32
2022-09-07T11:39:56.147Z,710.48
2022-09-07T11:40:52.718Z,706.12
2022-09-07T11:41:52.731Z,701.49
2022-09-07T11:42:52.725Z,696.29
2022-09-07T11:43:52.745Z,689.86
2022-09-07T11:44:52.854Z,683.29
2022-09-07T11:45:52.759Z,678.13
2022-09-07T11:46:52.758Z,679.84
2022-09-07T11:47:52.742Z,680.71
2022-09-07T11:48:52.737Z,684.64
2022-09-07T11:49:56.084Z,686
2022-09-07T11:50:55.535Z,685.64
2022-09-07T11:51:54.037Z,680.19
2022-09-07T11:52:53.954Z,675.19
2022-09-07T11:53:52.747Z,673.1
2022-09-07T11:54:52.831Z,672.21
2022-09-07T11:55:52.748Z,672.88
2022-09-07T11:56:52.750Z,670.8
2022-09-07T11:57:55.564Z,670.74
2022-09-07T11:58:52.756Z,672.09
2022-09-07T11:59:52.772Z,670.36
2022-09-07T12:00:52.767Z,667.39
2022-09-07T12:01:52.764Z,665.91
2022-09-07T12:02:59.618Z,665.71
2022-09-07T12:03:52.845Z,665.17
2022-09-07T12:04:56.108Z,673.34
2022-09-07T12:05:52.769Z,680.55
2022-09-07T12:06:52.772Z,687.95
2022-09-07T12:07:52.772Z,695.06
2022-09-07T12:08:52.778Z,701.75
2022-09-07T12:09:52.829Z,704.63
2022-09-07T12:10:52.796Z,700.77
2022-09-07T12:11:52.780Z,696.05
2022-09-07T12:12:52.783Z,691.65
2022-09-07T12:13:52.794Z,686.52
2022-09-07T12:14:52.822Z,680.72
2022-09-07T12:15:52.843Z,674.54
2022-09-07T12:16:52.791Z,668.96
2022-09-07T12:17:52.794Z,663.73
2022-09-07T12:18:52.834Z,665.29
2022-09-07T12:19:52.813Z,666.67
2022-09-07T12:20:52.800Z,661.99
2022-09-07T12:21:52.799Z,657.91
2022-09-07T12:22:52.812Z,654.8
2022-09-07T12:23:52.807Z,650.88
2022-09-07T12:24:52.897Z,647.31
2022-09-07T12:25:52.809Z,643.4
2022-09-07T12:26:52.826Z,638.4
2022-09-07T12:27:52.810Z,635.36
2022-09-07T12:28:52.814Z,633.22
2022-09-07T12:29:52.833Z,630.66
2022-09-07T12:30:52.886Z,628.33
2022-09-07T12:32:08.523Z,626.89
2022-09-07T12:33:04.689Z,627.22
2022-09-07T12:34:04.563Z,628.8
2022-09-07T12:35:08.141Z,629.29
2022-09-07T12:36:04.536Z,628.4
2022-09-07T12:37:06.036Z,633.59
2022-09-07T12:38:04.542Z,632.35
2022-09-07T12:39:04.543Z,631.64
2022-09-07T12:40:04.690Z,629.66
2022-09-07T12:41:04.547Z,628.93
2022-09-07T12:43:09.793Z,624.95
2022-09-07T12:44:04.551Z,622.54
2022-09-07T12:45:04.558Z,620.87
2022-09-07T12:46:04.664Z,619.06
2022-09-07T12:47:04.560Z,616.11
2022-09-07T12:48:04.784Z,614.64
2022-09-07T12:49:04.568Z,612.79
2022-09-07T12:50:04.591Z,613.46
2022-09-07T12:51:04.568Z,615.09
2022-09-07T12:52:14.157Z,617.82
2022-09-07T12:53:04.759Z,618.95
2022-09-07T12:54:04.573Z,619.57